NCAR-RAP Real-Time Weather Data

Output produced by METARs form (28 June 2017  12:08 UTC)
found at http://weather.rap.ucar.edu/surface/
 
KDCA 281152Z 28004KT 10SM FEW250 20/11 A3020 RMK AO2 SLP224 70007 T02000106 10200 20161 53019
KDCA 281052Z 25004KT 10SM FEW250 17/11 A3017 RMK AO2 SLP216 T01720106
KDCA 280952Z 23003KT 10SM FEW250 17/11 A3015 RMK AO2 SLP208 T01670106
KDCA 280852Z 33004KT 10SM FEW250 17/10 A3014 RMK AO2 SLP205 T01720100 53008
KDCA 280752Z 33003KT 10SM SCT250 19/09 A3012 RMK AO2 SLP200 T01890094
KDCA 280652Z 32004KT 10SM SCT250 18/10 A3012 RMK AO2 SLP198 T01830100
KDCA 280552Z 00000KT 10SM SCT250 19/09 A3011 RMK AO2 SLP196 T01940089 10256 20189 51013
KDCA 280452Z 33006KT 10SM FEW120 FEW250 19/09 A3010 RMK AO2 SLP193 T01940089 402780194
KDCA 280352Z 33007KT 10SM FEW120 SCT250 21/08 A3010 RMK AO2 SLP191 T02060083
KDCA 280252Z 34009KT 10SM FEW070 SCT120 BKN250 22/08 A3007 RMK AO2 SLP183 T02170083 53024
KDCA 280152Z 34013KT 10SM FEW070 SCT120 BKN250 23/09 A3004 RMK AO2 SLP172 T02280089
KDCA 280052Z 33013KT 10SM FEW065 SCT110 BKN250 24/08 A3002 RMK AO2 SLP164 CB DSNT E-S MOV E T02390083
KDCA 272352Z 31011KT 10SM FEW065 SCT100 BKN250 25/08 A3000 RMK AO2 SLP159 CB DSNT SE-S MOV E 60007 T02500083 10272 20217 53004
KDCA 272252Z 30010KT 10SM FEW065TCU SCT090 SCT110 BKN250 27/07 A2998 RMK AO2 SLP152 TCU VC SE T02670072
KDCA 272152Z 26006KT 10SM FEW065 SCT100 SCT120 BKN250 26/10 A2998 RMK AO2 LTG DSNT E SLP153 CB DSNT E-SE MOV E T02610100
KDCA 272052Z 09005KT 10SM SCT065TCU BKN100 BKN250 26/11 A2999 RMK AO2 RAE22 SLP155 TCU VC NE-SE P0006 60007 T02560111 56007
KDCA 271952Z 34011KT 10SM -RA BKN070 BKN100 23/13 A3000 RMK AO2 RAB02 SLP159 P0001 T02330128
KDCA 271852Z 25009KT 10SM SCT075 BKN110 BKN250 27/10 A2999 RMK AO2 RAB39E48 SLP156 P0000 T02720100
KDCA 271752Z 28010KT 10SM BKN070 BKN110 BKN250 26/08 A3001 RMK AO2 SLP162 T02560083 10278 20222 56008
KDCA 271652Z 28007G18KT 230V300 10SM BKN070 27/09 A3001 RMK AO2 SLP163 T02670094
KDCA 271552Z 27008G17KT 230V300 10SM SCT060 SCT160 26/11 A3003 RMK AO2 SLP167 T02610106
KDCA 271452Z 36008KT 10SM SCT050 SCT160 26/11 A3004 RMK AO2 SLP171 T02560106 58001
KDCA 271352Z 01006KT 10SM FEW080 FEW150 24/11 A3004 RMK AO2 SLP170 T02440106
KDCA 271252Z 31010KT 10SM FEW090 SCT150 24/11 A3005 RMK AO2 SLP174 T02390106
KDCA 271152Z 34004KT 10SM FEW060 SCT090 BKN140 22/12 A3004 RMK AO2 RAE03 SLP172 P0000 60000 T02220122 10228 20200 50010
KDCA 271052Z 00000KT 10SM -RA FEW055 BKN080 OVC100 21/12 A3004 RMK AO2 RAB22 SLP172 P0000 T02060122
KDCA 270952Z 32008KT 10SM BKN090 BKN140 BKN250 21/11 A3003 RMK AO2 SLP168 T02110106
KDCA 270852Z 35004KT 10SM SCT100 SCT140 BKN250 20/11 A3001 RMK AO2 SLP161 T02000111 53005
KDCA 270752Z 36003KT 10SM SCT100 SCT140 21/10 A3000 RMK AO2 SLP159 T02110100
KDCA 270652Z 35006KT 10SM FEW140 22/11 A2999 RMK AO2 SLP156 T02170106
KDCA 270552Z 34007KT 10SM FEW140 22/11 A2999 RMK AO2 SLP156 T02220106 10261 20222 58000
KDCA 270452Z 32009G15KT 10SM SCT080 BKN110 24/12 A3001 RMK AO2 SLP161 T02390117 402890200
KDCA 270352Z 18008KT 10SM BKN090 BKN110 24/17 A2999 RMK AO2 SLP156 T02390172
KDCA 270252Z 18011KT 10SM FEW080 BKN120 24/16 A2999 RMK AO2 SLP157 T02390161 53002
KDCA 270152Z 17011KT 10SM SCT100 BKN250 24/14 A2999 RMK AO2 SLP155 T02440144
KDCA 270052Z 17009KT 10SM SCT100 BKN250 26/13 A2998 RMK AO2 SLP153 T02560133
KDCA 262352Z 17011KT 10SM SCT085 SCT250 26/13 A2999 RMK AO2 SLP154 T02610128 10289 20261 56010
KDCA 262252Z 18008KT 10SM SCT095 SCT250 27/09 A2999 RMK AO2 SLP155 T02670094
KDCA 262152Z 19009KT 10SM BKN085 BKN250 28/09 A3000 RMK AO2 SLP157 T02830094
KDCA 262052Z 27010G15KT 10SM FEW085 SCT250 28/08 A3002 RMK AO2 SLP165 T02830078 58014
KDCA 261952Z 25012KT 10SM SCT085 SCT250 29/08 A3003 RMK AO2 SLP169 T02890078
KDCA 261852Z VRB04KT 10SM SCT070 SCT250 28/07 A3005 RMK AO2 SLP177 T02780072
KDCA 261752Z 27009G14KT 10SM SCT070 SCT250 27/07 A3006 RMK AO2 SLP179 T02720067 10278 20228 58013
KDCA 261652Z 10SM SCT060 SCT250 27/06 A3008 RMK AO2 SLP184 T02720061
KDCA 261552Z 32009KT 10SM FEW050 SCT250 27/07 A3009 RMK AO2 SLP189 T02670067
KDCA 261452Z 28011G19KT 250V320 10SM FEW040 FEW250 26/05 A3010 RMK AO2 SLP192 T02610050 51005
KDCA 261352Z VRB06G21KT 10SM FEW090 FEW250 26/04 A3009 RMK AO2 SLP191 T02560044
KDCA 261252Z 32011G15KT 10SM FEW080 25/08 A3009 RMK AO2 SLP191 T02500078
KDCA 261152Z 36005KT 10SM FEW090 23/11 A3009 RMK AO2 SLP188 T02280111 10233 20200 50006
KDCA 261052Z 35007KT 10SM FEW090 21/11 A3009 RMK AO2 SLP188 T02060106
KDCA 260952Z 32007KT 10SM FEW090 FEW250 21/10 A3007 RMK AO2 SLP183 T02060100
KDCA 260852Z 30009KT 10SM FEW130 FEW250 21/09 A3007 RMK AO2 SLP181 T02110089 53007
KDCA 260752Z 28008KT 10SM FEW130 FEW250 22/08 A3005 RMK AO2 SLP175 T02220083
KDCA 260652Z 30007KT 10SM FEW130 FEW250 23/08 A3005 RMK AO2 SLP175 T02280078
KDCA 260552Z 30006KT 10SM SCT250 22/08 A3005 RMK AO2 SLP175 T02220078 10272 20222 53001
KDCA 260452Z 28006KT 10SM FEW250 24/07 A3005 RMK AO2 SLP175 T02390072 403110222
KDCA 260352Z 30007KT 10SM FEW100 24/07 A3004 RMK AO2 SLP172 T02440072
KDCA 260252Z VRB04KT 10SM FEW100 24/08 A3004 RMK AO2 SLP173 T02440078 51011
KDCA 260152Z 33007KT 10SM SCT100 BKN250 26/08 A3003 RMK AO2 SLP170 T02560078
KDCA 260052Z 32009KT 10SM BKN100 BKN250 26/08 A3003 RMK AO2 SLP167 T02610078